createdAt,value
2018-03-07T00:04:49.931Z,0.26
2018-03-07T00:14:46.620Z,0.06
2018-03-07T00:24:44.860Z,-0.04
2018-03-07T00:34:42.337Z,-0.04
2018-03-07T00:44:40.402Z,-0.04
2018-03-07T00:54:39.159Z,0.06
2018-03-07T01:04:36.961Z,0.06
2018-03-07T01:14:34.002Z,0.06
2018-03-07T01:24:30.534Z,-0.04
2018-03-07T01:34:28.615Z,-0.04
2018-03-07T01:44:26.216Z,-0.04
2018-03-07T01:54:23.562Z,-0.14
2018-03-07T02:04:21.018Z,-0.13
2018-03-07T02:14:18.379Z,-0.23
2018-03-07T02:24:16.958Z,-0.33
2018-03-07T02:34:15.772Z,-0.23
2018-03-07T02:44:14.269Z,-0.23
2018-03-07T02:54:11.698Z,-0.43
2018-03-07T03:04:09.235Z,-0.33
2018-03-07T03:14:07.571Z,-0.43
2018-03-07T03:24:06.145Z,-0.43
2018-03-07T03:34:03.627Z,-0.43
2018-03-07T03:44:01.944Z,-0.72
2018-03-07T03:53:58.861Z,-0.72
2018-03-07T04:03:56.476Z,-0.92
2018-03-07T04:13:54.217Z,-1.11
2018-03-07T04:23:51.392Z,-1.21
2018-03-07T04:33:49.942Z,-1.31
2018-03-07T04:43:47.339Z,-1.41
2018-03-07T04:53:45.492Z,-1.60
2018-03-07T05:03:43.922Z,-1.70
2018-03-07T05:13:40.598Z,-1.70
2018-03-07T05:23:39.532Z,-1.60
2018-03-07T05:33:36.691Z,-1.60
2018-03-07T05:43:33.076Z,-1.50
2018-03-07T05:53:31.612Z,-1.31
2018-03-07T06:03:25.905Z,-1.11
2018-03-07T06:13:23.811Z,-0.92
2018-03-07T06:23:21.941Z,-0.72
2018-03-07T06:33:19.010Z,-0.53
2018-03-07T06:43:12.504Z,-0.13
2018-03-07T06:53:09.413Z,-0.04
2018-03-07T07:03:06.218Z,-0.04
2018-03-07T07:13:01.742Z,0.36
2018-03-07T07:22:58.039Z,0.45
2018-03-07T07:32:53.995Z,0.74
2018-03-07T07:42:48.409Z,1.33
2018-03-07T07:52:41.421Z,1.63
2018-03-07T08:02:38.062Z,2.21
2018-03-07T08:12:36.543Z,2.51
2018-03-07T08:22:34.351Z,2.90
2018-03-07T08:32:29.941Z,3.58
2018-03-07T08:42:29.018Z,4.37
2018-03-07T08:52:27.287Z,5.24
2018-03-07T09:02:26.379Z,6.03
2018-03-07T09:12:15.615Z,6.52
2018-03-07T09:22:10.720Z,6.61
2018-03-07T09:32:04.876Z,7.30
2018-03-07T09:41:57.562Z,7.69
2018-03-07T09:51:55.070Z,7.69
2018-03-07T10:01:51.375Z,8.08
2018-03-07T10:11:46.258Z,7.98
2018-03-07T10:21:44.848Z,8.37
2018-03-07T10:31:41.698Z,8.28
2018-03-07T10:41:39.648Z,8.28
2018-03-07T10:51:35.741Z,7.88
2018-03-07T11:01:31.456Z,8.08
2018-03-07T11:11:29.805Z,8.57
2018-03-07T11:21:25.817Z,8.57
2018-03-07T11:31:23.076Z,9.26
2018-03-07T11:40:59.285Z,10.04
2018-03-07T11:50:35.815Z,9.55
2018-03-07T12:00:30.761Z,9.25
2018-03-07T12:10:01.980Z,10.04
2018-03-07T12:19:39.614Z,10.53
2018-03-07T12:29:16.829Z,10.82
2018-03-07T12:38:57.192Z,10.43
2018-03-07T12:48:43.011Z,9.55
2018-03-07T12:58:38.408Z,8.96
2018-03-07T13:08:38.023Z,9.35
2018-03-07T13:18:29.852Z,10.04
2018-03-07T13:28:04.486Z,10.23
2018-03-07T13:37:41.779Z,11.01
2018-03-07T13:47:20.844Z,11.31
2018-03-07T13:56:55.283Z,11.31
2018-03-07T14:06:28.853Z,11.31
2018-03-07T14:16:02.936Z,10.04
2018-03-07T14:25:42.248Z,9.65
2018-03-07T14:35:17.895Z,11.50
2018-03-07T14:44:51.464Z,10.23
2018-03-07T14:54:25.479Z,9.35
2018-03-07T15:04:19.057Z,8.77
2018-03-07T15:14:17.427Z,8.86
2018-03-07T15:24:10.905Z,8.57
2018-03-07T15:34:06.642Z,6.61
2018-03-07T15:44:03.697Z,6.03
2018-03-07T15:53:59.436Z,5.83
2018-03-07T16:03:56.606Z,5.73
2018-03-07T16:13:53.598Z,5.44
2018-03-07T16:23:46.223Z,4.95
2018-03-07T16:33:41.407Z,4.27
2018-03-07T16:43:34.307Z,3.78
2018-03-07T16:53:28.222Z,3.68
2018-03-07T17:03:22.628Z,3.19
2018-03-07T17:13:18.248Z,3.09
2018-03-07T17:23:15.979Z,2.80
2018-03-07T17:33:12.565Z,2.70
2018-03-07T17:43:05.584Z,2.41
2018-03-07T17:53:01.525Z,2.11
2018-03-07T18:02:55.865Z,2.02
2018-03-07T18:12:50.043Z,1.82
2018-03-07T18:22:46.072Z,1.72
2018-03-07T18:32:42.238Z,1.72
2018-03-07T18:42:38.101Z,1.72
2018-03-07T18:52:33.644Z,1.72
2018-03-07T19:02:31.282Z,1.82
2018-03-07T19:12:25.262Z,1.82
2018-03-07T19:22:22.257Z,1.62
2018-03-07T19:32:17.090Z,1.63
2018-03-07T19:42:09.032Z,1.53
2018-03-07T19:52:04.893Z,1.33
2018-03-07T20:02:01.254Z,1.24
2018-03-07T20:11:54.501Z,1.14
2018-03-07T20:21:48.745Z,1.04
2018-03-07T20:31:43.252Z,0.75
2018-03-07T20:41:39.166Z,0.75
2018-03-07T20:51:34.421Z,0.65
2018-03-07T21:01:29.856Z,0.65
2018-03-07T21:11:26.157Z,0.74
2018-03-07T21:21:20.658Z,0.84
2018-03-07T21:31:16.457Z,0.84
2018-03-07T21:41:12.970Z,1.04
2018-03-07T21:51:08.920Z,1.04
2018-03-07T22:01:06.854Z,1.14
2018-03-07T22:11:03.288Z,1.14
2018-03-07T22:20:58.991Z,1.04
2018-03-07T22:30:53.610Z,1.04
2018-03-07T22:40:51.114Z,1.14
2018-03-07T22:50:48.529Z,1.23
2018-03-07T23:00:38.637Z,1.43
2018-03-07T23:10:35.079Z,1.92
2018-03-07T23:20:32.558Z,1.82
2018-03-07T23:30:31.004Z,2.51
2018-03-07T23:40:29.232Z,4.37
2018-03-07T23:50:25.121Z,4.76
